sensor_id;sensor_type;location;lat;lon;timestamp;P1;durP1;ratioP1;P2;durP2;ratioP2
23680;SDS011;62915;50.832;4.462;2023-12-20T00:01:29;9.88;;;2.60;;
23680;SDS011;62915;50.832;4.462;2023-12-20T00:03:54;14.15;;;2.80;;
23680;SDS011;62915;50.832;4.462;2023-12-20T00:06:20;10.30;;;3.33;;
23680;SDS011;62915;50.832;4.462;2023-12-20T00:08:46;14.48;;;2.97;;
23680;SDS011;62915;50.832;4.462;2023-12-20T00:11:12;8.88;;;2.60;;
23680;SDS011;62915;50.832;4.462;2023-12-20T00:13:38;19.58;;;3.40;;
23680;SDS011;62915;50.832;4.462;2023-12-20T00:16:04;18.13;;;2.95;;
23680;SDS011;62915;50.832;4.462;2023-12-20T00:18:30;7.53;;;2.40;;
23680;SDS011;62915;50.832;4.462;2023-12-20T00:20:55;19.35;;;3.55;;
23680;SDS011;62915;50.832;4.462;2023-12-20T00:23:21;11.70;;;2.97;;
23680;SDS011;62915;50.832;4.462;2023-12-20T00:25:48;15.40;;;2.63;;
23680;SDS011;62915;50.832;4.462;2023-12-20T00:28:14;11.93;;;2.60;;
23680;SDS011;62915;50.832;4.462;2023-12-20T00:30:40;11.48;;;2.47;;
23680;SDS011;62915;50.832;4.462;2023-12-20T00:33:05;13.20;;;2.63;;
23680;SDS011;62915;50.832;4.462;2023-12-20T00:35:31;14.95;;;2.72;;
23680;SDS011;62915;50.832;4.462;2023-12-20T00:37:58;18.30;;;2.70;;
23680;SDS011;62915;50.832;4.462;2023-12-20T00:40:24;6.40;;;2.08;;
23680;SDS011;62915;50.832;4.462;2023-12-20T00:42:49;10.13;;;2.50;;
23680;SDS011;62915;50.832;4.462;2023-12-20T00:45:15;9.40;;;2.60;;
23680;SDS011;62915;50.832;4.462;2023-12-20T00:47:41;16.83;;;2.97;;
23680;SDS011;62915;50.832;4.462;2023-12-20T00:50:07;14.80;;;3.33;;
23680;SDS011;62915;50.832;4.462;2023-12-20T00:52:33;13.93;;;3.00;;
23680;SDS011;62915;50.832;4.462;2023-12-20T00:54:59;13.05;;;3.28;;
23680;SDS011;62915;50.832;4.462;2023-12-20T00:57:24;11.73;;;2.97;;
23680;SDS011;62915;50.832;4.462;2023-12-20T00:59:50;11.70;;;2.53;;
23680;SDS011;62915;50.832;4.462;2023-12-20T01:02:16;15.38;;;3.20;;
23680;SDS011;62915;50.832;4.462;2023-12-20T01:04:42;7.68;;;2.63;;
23680;SDS011;62915;50.832;4.462;2023-12-20T01:07:08;11.18;;;2.58;;
23680;SDS011;62915;50.832;4.462;2023-12-20T01:09:33;18.85;;;3.03;;
23680;SDS011;62915;50.832;4.462;2023-12-20T01:11:59;10.60;;;3.40;;
23680;SDS011;62915;50.832;4.462;2023-12-20T01:14:25;11.68;;;3.05;;
23680;SDS011;62915;50.832;4.462;2023-12-20T01:16:50;13.27;;;3.25;;
23680;SDS011;62915;50.832;4.462;2023-12-20T01:19:16;13.80;;;3.20;;
23680;SDS011;62915;50.832;4.462;2023-12-20T01:21:42;13.90;;;3.50;;
23680;SDS011;62915;50.832;4.462;2023-12-20T01:24:07;14.02;;;3.83;;
23680;SDS011;62915;50.832;4.462;2023-12-20T01:26:34;14.02;;;3.15;;
23680;SDS011;62915;50.832;4.462;2023-12-20T01:28:59;18.17;;;4.47;;
23680;SDS011;62915;50.832;4.462;2023-12-20T01:31:26;12.63;;;3.53;;
23680;SDS011;62915;50.832;4.462;2023-12-20T01:33:52;16.40;;;3.60;;
23680;SDS011;62915;50.832;4.462;2023-12-20T01:36:18;16.30;;;3.53;;
23680;SDS011;62915;50.832;4.462;2023-12-20T01:38:44;16.95;;;3.40;;
23680;SDS011;62915;50.832;4.462;2023-12-20T01:41:10;11.50;;;3.60;;
23680;SDS011;62915;50.832;4.462;2023-12-20T01:43:36;20.10;;;4.07;;
23680;SDS011;62915;50.832;4.462;2023-12-20T01:46:02;10.43;;;3.03;;
23680;SDS011;62915;50.832;4.462;2023-12-20T01:48:28;13.52;;;3.50;;
23680;SDS011;62915;50.832;4.462;2023-12-20T01:50:57;14.93;;;3.85;;
23680;SDS011;62915;50.832;4.462;2023-12-20T01:53:25;15.35;;;4.07;;
23680;SDS011;62915;50.832;4.462;2023-12-20T01:55:52;14.13;;;3.60;;
23680;SDS011;62915;50.832;4.462;2023-12-20T01:58:20;14.07;;;3.55;;
23680;SDS011;62915;50.832;4.462;2023-12-20T02:00:47;8.73;;;3.38;;
23680;SDS011;62915;50.832;4.462;2023-12-20T02:03:13;12.25;;;3.22;;
23680;SDS011;62915;50.832;4.462;2023-12-20T02:05:39;10.98;;;3.17;;
23680;SDS011;62915;50.832;4.462;2023-12-20T02:08:06;17.52;;;4.07;;
23680;SDS011;62915;50.832;4.462;2023-12-20T02:10:32;18.67;;;4.45;;
23680;SDS011;62915;50.832;4.462;2023-12-20T02:12:58;19.60;;;4.85;;
23680;SDS011;62915;50.832;4.462;2023-12-20T02:15:23;16.95;;;3.88;;
23680;SDS011;62915;50.832;4.462;2023-12-20T02:17:49;15.30;;;3.90;;
23680;SDS011;62915;50.832;4.462;2023-12-20T02:20:15;16.90;;;3.97;;
23680;SDS011;62915;50.832;4.462;2023-12-20T02:22:41;21.65;;;4.20;;
23680;SDS011;62915;50.832;4.462;2023-12-20T02:25:07;12.85;;;3.40;;
23680;SDS011;62915;50.832;4.462;2023-12-20T02:27:33;24.25;;;4.03;;
23680;SDS011;62915;50.832;4.462;2023-12-20T02:30:00;17.45;;;3.40;;
23680;SDS011;62915;50.832;4.462;2023-12-20T02:32:26;17.58;;;3.45;;
23680;SDS011;62915;50.832;4.462;2023-12-20T02:34:52;17.17;;;3.70;;
23680;SDS011;62915;50.832;4.462;2023-12-20T02:37:18;19.50;;;4.25;;
23680;SDS011;62915;50.832;4.462;2023-12-20T02:39:44;14.15;;;3.88;;
23680;SDS011;62915;50.832;4.462;2023-12-20T02:42:10;18.85;;;4.55;;
23680;SDS011;62915;50.832;4.462;2023-12-20T02:44:35;15.35;;;3.55;;
23680;SDS011;62915;50.832;4.462;2023-12-20T02:47:01;17.65;;;3.92;;
23680;SDS011;62915;50.832;4.462;2023-12-20T02:49:27;16.40;;;4.25;;
23680;SDS011;62915;50.832;4.462;2023-12-20T02:51:54;17.77;;;4.65;;
23680;SDS011;62915;50.832;4.462;2023-12-20T02:54:20;18.88;;;4.70;;
23680;SDS011;62915;50.832;4.462;2023-12-20T02:56:46;14.30;;;4.38;;
23680;SDS011;62915;50.832;4.462;2023-12-20T02:59:12;14.00;;;4.00;;
23680;SDS011;62915;50.832;4.462;2023-12-20T03:01:41;12.32;;;4.60;;
23680;SDS011;62915;50.832;4.462;2023-12-20T03:04:08;10.20;;;4.20;;
23680;SDS011;62915;50.832;4.462;2023-12-20T03:06:34;18.02;;;4.75;;
23680;SDS011;62915;50.832;4.462;2023-12-20T03:09:00;13.25;;;3.92;;
23680;SDS011;62915;50.832;4.462;2023-12-20T03:11:28;17.95;;;5.43;;
23680;SDS011;62915;50.832;4.462;2023-12-20T03:13:54;13.85;;;4.53;;
23680;SDS011;62915;50.832;4.462;2023-12-20T03:16:21;20.10;;;4.90;;
23680;SDS011;62915;50.832;4.462;2023-12-20T03:18:46;13.25;;;5.00;;
23680;SDS011;62915;50.832;4.462;2023-12-20T03:21:12;23.40;;;5.93;;
23680;SDS011;62915;50.832;4.462;2023-12-20T03:23:38;17.25;;;5.47;;
23680;SDS011;62915;50.832;4.462;2023-12-20T03:26:06;13.13;;;4.80;;
23680;SDS011;62915;50.832;4.462;2023-12-20T03:28:32;18.80;;;5.38;;
23680;SDS011;62915;50.832;4.462;2023-12-20T03:30:58;22.88;;;5.28;;
23680;SDS011;62915;50.832;4.462;2023-12-20T03:33:23;19.75;;;5.40;;
23680;SDS011;62915;50.832;4.462;2023-12-20T03:35:49;16.40;;;5.20;;
23680;SDS011;62915;50.832;4.462;2023-12-20T03:38:15;14.77;;;5.03;;
23680;SDS011;62915;50.832;4.462;2023-12-20T03:40:41;14.57;;;5.38;;
23680;SDS011;62915;50.832;4.462;2023-12-20T03:43:06;21.40;;;5.75;;
23680;SDS011;62915;50.832;4.462;2023-12-20T03:45:32;20.25;;;5.63;;
23680;SDS011;62915;50.832;4.462;2023-12-20T03:47:58;21.23;;;6.10;;
23680;SDS011;62915;50.832;4.462;2023-12-20T03:50:24;19.27;;;5.43;;
23680;SDS011;62915;50.832;4.462;2023-12-20T03:52:51;20.00;;;5.10;;
23680;SDS011;62915;50.832;4.462;2023-12-20T03:55:17;21.20;;;5.60;;
23680;SDS011;62915;50.832;4.462;2023-12-20T03:57:43;17.05;;;5.03;;
23680;SDS011;62915;50.832;4.462;2023-12-20T04:00:09;16.92;;;5.50;;
23680;SDS011;62915;50.832;4.462;2023-12-20T04:02:38;13.85;;;4.97;;
23680;SDS011;62915;50.832;4.462;2023-12-20T04:05:07;19.13;;;5.18;;
23680;SDS011;62915;50.832;4.462;2023-12-20T04:07:37;21.52;;;5.63;;
23680;SDS011;62915;50.832;4.462;2023-12-20T04:10:04;16.77;;;4.95;;
23680;SDS011;62915;50.832;4.462;2023-12-20T04:12:30;15.68;;;5.15;;
23680;SDS011;62915;50.832;4.462;2023-12-20T04:14:57;13.00;;;4.63;;
23680;SDS011;62915;50.832;4.462;2023-12-20T04:17:23;18.73;;;5.07;;
23680;SDS011;62915;50.832;4.462;2023-12-20T04:19:49;18.60;;;5.22;;
23680;SDS011;62915;50.832;4.462;2023-12-20T04:22:15;15.70;;;5.93;;
23680;SDS011;62915;50.832;4.462;2023-12-20T04:24:42;13.05;;;4.82;;
23680;SDS011;62915;50.832;4.462;2023-12-20T04:27:08;16.77;;;4.90;;
23680;SDS011;62915;50.832;4.462;2023-12-20T04:29:34;15.48;;;4.93;;
23680;SDS011;62915;50.832;4.462;2023-12-20T04:31:59;16.95;;;4.63;;
23680;SDS011;62915;50.832;4.462;2023-12-20T04:34:25;12.93;;;4.32;;
23680;SDS011;62915;50.832;4.462;2023-12-20T04:36:51;23.98;;;4.80;;
23680;SDS011;62915;50.832;4.462;2023-12-20T04:39:17;13.10;;;4.40;;
23680;SDS011;62915;50.832;4.462;2023-12-20T04:41:43;19.60;;;4.78;;
23680;SDS011;62915;50.832;4.462;2023-12-20T04:44:09;13.75;;;5.18;;
23680;SDS011;62915;50.832;4.462;2023-12-20T04:46:34;13.50;;;4.50;;
23680;SDS011;62915;50.832;4.462;2023-12-20T04:49:00;13.75;;;4.30;;
23680;SDS011;62915;50.832;4.462;2023-12-20T04:51:26;15.23;;;4.70;;
23680;SDS011;62915;50.832;4.462;2023-12-20T04:53:52;17.63;;;4.80;;
23680;SDS011;62915;50.832;4.462;2023-12-20T04:56:18;20.67;;;4.55;;
23680;SDS011;62915;50.832;4.462;2023-12-20T04:58:44;18.98;;;4.28;;
23680;SDS011;62915;50.832;4.462;2023-12-20T05:01:11;14.20;;;3.97;;
23680;SDS011;62915;50.832;4.462;2023-12-20T05:03:37;19.67;;;5.10;;
23680;SDS011;62915;50.832;4.462;2023-12-20T05:06:03;17.33;;;4.80;;
23680;SDS011;62915;50.832;4.462;2023-12-20T05:08:28;22.20;;;4.93;;
23680;SDS011;62915;50.832;4.462;2023-12-20T05:10:54;15.95;;;4.22;;
23680;SDS011;62915;50.832;4.462;2023-12-20T05:13:20;19.55;;;4.50;;
23680;SDS011;62915;50.832;4.462;2023-12-20T05:15:46;13.18;;;4.25;;
23680;SDS011;62915;50.832;4.462;2023-12-20T05:18:12;15.23;;;4.72;;
23680;SDS011;62915;50.832;4.462;2023-12-20T05:20:38;21.33;;;4.63;;
23680;SDS011;62915;50.832;4.462;2023-12-20T05:23:04;13.75;;;4.97;;
23680;SDS011;62915;50.832;4.462;2023-12-20T05:25:30;24.38;;;4.78;;
23680;SDS011;62915;50.832;4.462;2023-12-20T05:27:56;19.25;;;4.45;;
23680;SDS011;62915;50.832;4.462;2023-12-20T05:30:22;19.33;;;4.78;;
23680;SDS011;62915;50.832;4.462;2023-12-20T05:32:48;24.55;;;4.63;;
23680;SDS011;62915;50.832;4.462;2023-12-20T05:35:14;17.02;;;4.78;;
23680;SDS011;62915;50.832;4.462;2023-12-20T05:37:40;17.55;;;4.57;;
23680;SDS011;62915;50.832;4.462;2023-12-20T05:40:06;32.30;;;6.45;;
23680;SDS011;62915;50.832;4.462;2023-12-20T05:42:35;18.73;;;5.00;;
23680;SDS011;62915;50.832;4.462;2023-12-20T05:45:02;15.15;;;5.28;;
23680;SDS011;62915;50.832;4.462;2023-12-20T05:47:28;17.48;;;5.25;;
23680;SDS011;62915;50.832;4.462;2023-12-20T05:49:53;14.40;;;4.68;;
23680;SDS011;62915;50.832;4.462;2023-12-20T05:52:19;21.27;;;4.97;;
23680;SDS011;62915;50.832;4.462;2023-12-20T05:54:45;18.10;;;4.35;;
23680;SDS011;62915;50.832;4.462;2023-12-20T05:57:10;16.98;;;4.70;;
23680;SDS011;62915;50.832;4.462;2023-12-20T05:59:36;11.38;;;4.70;;
23680;SDS011;62915;50.832;4.462;2023-12-20T06:02:03;18.17;;;4.85;;
23680;SDS011;62915;50.832;4.462;2023-12-20T06:04:29;21.08;;;4.90;;
23680;SDS011;62915;50.832;4.462;2023-12-20T06:06:55;13.43;;;3.92;;
23680;SDS011;62915;50.832;4.462;2023-12-20T06:09:21;21.88;;;4.57;;
23680;SDS011;62915;50.832;4.462;2023-12-20T06:11:47;18.52;;;4.15;;
23680;SDS011;62915;50.832;4.462;2023-12-20T06:14:12;16.52;;;4.15;;
23680;SDS011;62915;50.832;4.462;2023-12-20T06:16:38;13.10;;;3.67;;
23680;SDS011;62915;50.832;4.462;2023-12-20T06:19:04;17.88;;;4.53;;
23680;SDS011;62915;50.832;4.462;2023-12-20T06:21:31;17.00;;;4.22;;
23680;SDS011;62915;50.832;4.462;2023-12-20T06:23:58;25.85;;;4.82;;
23680;SDS011;62915;50.832;4.462;2023-12-20T06:26:24;14.65;;;4.72;;
23680;SDS011;62915;50.832;4.462;2023-12-20T06:28:50;19.80;;;4.20;;
23680;SDS011;62915;50.832;4.462;2023-12-20T06:31:16;12.82;;;4.15;;
23680;SDS011;62915;50.832;4.462;2023-12-20T06:33:42;16.42;;;4.30;;
23680;SDS011;62915;50.832;4.462;2023-12-20T06:36:11;20.90;;;4.57;;
23680;SDS011;62915;50.832;4.462;2023-12-20T06:38:38;11.57;;;3.97;;
23680;SDS011;62915;50.832;4.462;2023-12-20T06:41:04;15.35;;;3.97;;
23680;SDS011;62915;50.832;4.462;2023-12-20T06:43:31;14.82;;;4.40;;
23680;SDS011;62915;50.832;4.462;2023-12-20T06:45:59;18.13;;;4.25;;
23680;SDS011;62915;50.832;4.462;2023-12-20T06:48:25;15.93;;;3.78;;
23680;SDS011;62915;50.832;4.462;2023-12-20T06:50:51;14.90;;;3.95;;
23680;SDS011;62915;50.832;4.462;2023-12-20T06:53:17;12.88;;;3.83;;
23680;SDS011;62915;50.832;4.462;2023-12-20T06:55:43;18.92;;;4.07;;
23680;SDS011;62915;50.832;4.462;2023-12-20T06:58:09;12.35;;;3.30;;
23680;SDS011;62915;50.832;4.462;2023-12-20T07:00:35;18.88;;;3.72;;
23680;SDS011;62915;50.832;4.462;2023-12-20T07:03:00;15.70;;;3.38;;
23680;SDS011;62915;50.832;4.462;2023-12-20T07:05:26;19.95;;;4.20;;
23680;SDS011;62915;50.832;4.462;2023-12-20T07:07:52;19.40;;;4.05;;
23680;SDS011;62915;50.832;4.462;2023-12-20T07:10:18;15.50;;;3.80;;
23680;SDS011;62915;50.832;4.462;2023-12-20T07:12:44;16.10;;;3.70;;
23680;SDS011;62915;50.832;4.462;2023-12-20T07:15:10;15.45;;;3.47;;
23680;SDS011;62915;50.832;4.462;2023-12-20T07:17:36;13.38;;;3.83;;
23680;SDS011;62915;50.832;4.462;2023-12-20T07:20:03;14.75;;;3.72;;
23680;SDS011;62915;50.832;4.462;2023-12-20T07:22:30;12.77;;;3.40;;
23680;SDS011;62915;50.832;4.462;2023-12-20T07:24:59;14.23;;;3.13;;
23680;SDS011;62915;50.832;4.462;2023-12-20T07:27:25;11.82;;;2.85;;
23680;SDS011;62915;50.832;4.462;2023-12-20T07:29:51;27.42;;;3.72;;
23680;SDS011;62915;50.832;4.462;2023-12-20T07:32:17;15.63;;;3.92;;
23680;SDS011;62915;50.832;4.462;2023-12-20T07:34:43;13.98;;;3.80;;
23680;SDS011;62915;50.832;4.462;2023-12-20T07:37:09;14.65;;;3.50;;
23680;SDS011;62915;50.832;4.462;2023-12-20T07:39:41;16.15;;;3.47;;
23680;SDS011;62915;50.832;4.462;2023-12-20T07:42:07;17.40;;;4.00;;
23680;SDS011;62915;50.832;4.462;2023-12-20T07:44:34;16.25;;;3.85;;
23680;SDS011;62915;50.832;4.462;2023-12-20T07:47:01;17.88;;;3.33;;
23680;SDS011;62915;50.832;4.462;2023-12-20T07:49:30;17.23;;;4.00;;
23680;SDS011;62915;50.832;4.462;2023-12-20T07:51:56;15.63;;;3.58;;
23680;SDS011;62915;50.832;4.462;2023-12-20T07:54:24;13.88;;;3.70;;
23680;SDS011;62915;50.832;4.462;2023-12-20T07:56:49;12.88;;;3.55;;
23680;SDS011;62915;50.832;4.462;2023-12-20T07:59:15;18.63;;;3.60;;
23680;SDS011;62915;50.832;4.462;2023-12-20T08:01:41;21.05;;;3.40;;
23680;SDS011;62915;50.832;4.462;2023-12-20T08:04:07;15.63;;;3.40;;
23680;SDS011;62915;50.832;4.462;2023-12-20T08:06:33;17.40;;;3.47;;
23680;SDS011;62915;50.832;4.462;2023-12-20T08:08:59;20.13;;;4.28;;
23680;SDS011;62915;50.832;4.462;2023-12-20T08:11:25;15.93;;;3.67;;
23680;SDS011;62915;50.832;4.462;2023-12-20T08:13:50;12.13;;;3.00;;
23680;SDS011;62915;50.832;4.462;2023-12-20T08:16:19;18.50;;;3.45;;
23680;SDS011;62915;50.832;4.462;2023-12-20T08:18:45;13.38;;;2.80;;
23680;SDS011;62915;50.832;4.462;2023-12-20T08:21:11;16.95;;;4.00;;
23680;SDS011;62915;50.832;4.462;2023-12-20T08:23:41;19.75;;;3.78;;
23680;SDS011;62915;50.832;4.462;2023-12-20T08:26:07;13.27;;;3.80;;
23680;SDS011;62915;50.832;4.462;2023-12-20T08:28:37;12.30;;;3.45;;
23680;SDS011;62915;50.832;4.462;2023-12-20T08:31:05;18.65;;;3.28;;
23680;SDS011;62915;50.832;4.462;2023-12-20T08:33:31;12.95;;;3.65;;
23680;SDS011;62915;50.832;4.462;2023-12-20T08:35:57;16.77;;;4.13;;
23680;SDS011;62915;50.832;4.462;2023-12-20T08:38:23;16.42;;;3.97;;
23680;SDS011;62915;50.832;4.462;2023-12-20T08:40:48;16.73;;;3.38;;
23680;SDS011;62915;50.832;4.462;2023-12-20T08:43:14;20.77;;;3.70;;
23680;SDS011;62915;50.832;4.462;2023-12-20T08:45:40;18.35;;;3.85;;
23680;SDS011;62915;50.832;4.462;2023-12-20T08:48:06;12.55;;;3.60;;
23680;SDS011;62915;50.832;4.462;2023-12-20T08:50:32;22.90;;;4.57;;
23680;SDS011;62915;50.832;4.462;2023-12-20T08:52:57;14.02;;;3.95;;
23680;SDS011;62915;50.832;4.462;2023-12-20T08:55:23;13.70;;;3.65;;
23680;SDS011;62915;50.832;4.462;2023-12-20T08:57:49;12.80;;;3.50;;
23680;SDS011;62915;50.832;4.462;2023-12-20T09:00:15;15.68;;;3.75;;
23680;SDS011;62915;50.832;4.462;2023-12-20T09:02:45;14.02;;;3.15;;
23680;SDS011;62915;50.832;4.462;2023-12-20T09:05:14;13.80;;;3.67;;
23680;SDS011;62915;50.832;4.462;2023-12-20T09:07:39;17.80;;;4.18;;
23680;SDS011;62915;50.832;4.462;2023-12-20T09:10:08;11.98;;;3.60;;
23680;SDS011;62915;50.832;4.462;2023-12-20T09:12:34;14.32;;;3.45;;
23680;SDS011;62915;50.832;4.462;2023-12-20T09:15:00;19.67;;;3.58;;
23680;SDS011;62915;50.832;4.462;2023-12-20T09:17:28;18.05;;;3.90;;
23680;SDS011;62915;50.832;4.462;2023-12-20T09:19:54;13.93;;;4.07;;
23680;SDS011;62915;50.832;4.462;2023-12-20T09:22:19;17.70;;;3.60;;
23680;SDS011;62915;50.832;4.462;2023-12-20T09:24:45;16.40;;;3.80;;
23680;SDS011;62915;50.832;4.462;2023-12-20T09:27:11;16.42;;;3.88;;
23680;SDS011;62915;50.832;4.462;2023-12-20T09:29:36;11.73;;;3.83;;
23680;SDS011;62915;50.832;4.462;2023-12-20T09:32:02;17.98;;;3.38;;
23680;SDS011;62915;50.832;4.462;2023-12-20T09:34:28;16.75;;;3.70;;
23680;SDS011;62915;50.832;4.462;2023-12-20T09:36:54;19.58;;;3.67;;
23680;SDS011;62915;50.832;4.462;2023-12-20T09:39:20;15.23;;;3.67;;
23680;SDS011;62915;50.832;4.462;2023-12-20T09:42:03;11.10;;;3.53;;
23680;SDS011;62915;50.832;4.462;2023-12-20T09:44:29;18.92;;;4.15;;
23680;SDS011;62915;50.832;4.462;2023-12-20T09:46:56;14.15;;;4.03;;
23680;SDS011;62915;50.832;4.462;2023-12-20T09:49:22;14.13;;;3.72;;
23680;SDS011;62915;50.832;4.462;2023-12-20T09:51:53;16.50;;;3.30;;
23680;SDS011;62915;50.832;4.462;2023-12-20T09:54:20;13.48;;;3.58;;
23680;SDS011;62915;50.832;4.462;2023-12-20T09:56:47;13.73;;;3.50;;
23680;SDS011;62915;50.832;4.462;2023-12-20T09:59:15;15.07;;;3.85;;
23680;SDS011;62915;50.832;4.462;2023-12-20T10:01:43;17.50;;;3.50;;
23680;SDS011;62915;50.832;4.462;2023-12-20T10:04:11;18.73;;;4.32;;
23680;SDS011;62915;50.832;4.462;2023-12-20T10:06:41;11.82;;;3.45;;
23680;SDS011;62915;50.832;4.462;2023-12-20T10:09:08;17.95;;;3.75;;
23680;SDS011;62915;50.832;4.462;2023-12-20T10:11:37;18.00;;;3.90;;
23680;SDS011;62915;50.832;4.462;2023-12-20T10:14:04;14.77;;;3.17;;
23680;SDS011;62915;50.832;4.462;2023-12-20T10:16:31;16.42;;;4.35;;
23680;SDS011;62915;50.832;4.462;2023-12-20T10:18:58;14.93;;;3.30;;
23680;SDS011;62915;50.832;4.462;2023-12-20T10:21:26;14.57;;;3.75;;
23680;SDS011;62915;50.832;4.462;2023-12-20T10:23:54;19.55;;;3.80;;
23680;SDS011;62915;50.832;4.462;2023-12-20T10:26:24;10.02;;;3.05;;
23680;SDS011;62915;50.832;4.462;2023-12-20T10:28:54;11.98;;;3.67;;
23680;SDS011;62915;50.832;4.462;2023-12-20T10:31:28;14.80;;;3.97;;
23680;SDS011;62915;50.832;4.462;2023-12-20T10:33:55;11.55;;;2.92;;
23680;SDS011;62915;50.832;4.462;2023-12-20T10:36:23;13.60;;;3.92;;
23680;SDS011;62915;50.832;4.462;2023-12-20T10:38:52;12.95;;;3.70;;
23680;SDS011;62915;50.832;4.462;2023-12-20T10:41:19;18.92;;;3.30;;
23680;SDS011;62915;50.832;4.462;2023-12-20T10:44:00;17.00;;;3.60;;
23680;SDS011;62915;50.832;4.462;2023-12-20T10:46:28;17.08;;;3.58;;
23680;SDS011;62915;50.832;4.462;2023-12-20T10:48:55;15.30;;;3.67;;
23680;SDS011;62915;50.832;4.462;2023-12-20T10:51:22;12.23;;;4.18;;
23680;SDS011;62915;50.832;4.462;2023-12-20T10:53:49;13.27;;;3.38;;
23680;SDS011;62915;50.832;4.462;2023-12-20T10:56:17;20.75;;;4.07;;
23680;SDS011;62915;50.832;4.462;2023-12-20T10:58:44;14.20;;;3.58;;
23680;SDS011;62915;50.832;4.462;2023-12-20T11:01:15;16.38;;;3.75;;
23680;SDS011;62915;50.832;4.462;2023-12-20T11:03:46;12.07;;;3.35;;
23680;SDS011;62915;50.832;4.462;2023-12-20T11:14:11;14.03;;;3.50;;
23680;SDS011;62915;50.832;4.462;2023-12-20T11:16:42;14.68;;;3.97;;
23680;SDS011;62915;50.832;4.462;2023-12-20T11:19:07;15.75;;;4.28;;
23680;SDS011;62915;50.832;4.462;2023-12-20T11:21:36;13.00;;;3.55;;
23680;SDS011;62915;50.832;4.462;2023-12-20T11:24:02;9.43;;;3.53;;
23680;SDS011;62915;50.832;4.462;2023-12-20T11:26:30;12.68;;;3.13;;
23680;SDS011;62915;50.832;4.462;2023-12-20T11:31:57;15.18;;;3.75;;
23680;SDS011;62915;50.832;4.462;2023-12-20T11:34:28;15.65;;;3.95;;
23680;SDS011;62915;50.832;4.462;2023-12-20T11:37:00;18.17;;;3.83;;
23680;SDS011;62915;50.832;4.462;2023-12-20T11:39:27;18.95;;;3.58;;
23680;SDS011;62915;50.832;4.462;2023-12-20T11:41:56;22.50;;;3.55;;
23680;SDS011;62915;50.832;4.462;2023-12-20T11:44:22;15.68;;;3.55;;
23680;SDS011;62915;50.832;4.462;2023-12-20T11:46:50;12.35;;;3.78;;
23680;SDS011;62915;50.832;4.462;2023-12-20T11:49:16;13.70;;;4.15;;
23680;SDS011;62915;50.832;4.462;2023-12-20T11:51:42;15.02;;;3.97;;
23680;SDS011;62915;50.832;4.462;2023-12-20T11:54:08;12.25;;;3.83;;
23680;SDS011;62915;50.832;4.462;2023-12-20T11:56:35;13.32;;;3.95;;
23680;SDS011;62915;50.832;4.462;2023-12-20T11:59:01;16.83;;;4.40;;
23680;SDS011;62915;50.832;4.462;2023-12-20T12:01:28;18.40;;;4.28;;
23680;SDS011;62915;50.832;4.462;2023-12-20T12:04:03;23.75;;;5.32;;
23680;SDS011;62915;50.832;4.462;2023-12-20T12:06:32;18.50;;;4.43;;
23680;SDS011;62915;50.832;4.462;2023-12-20T12:08:58;18.65;;;4.70;;
23680;SDS011;62915;50.832;4.462;2023-12-20T12:11:24;19.63;;;4.05;;
23680;SDS011;62915;50.832;4.462;2023-12-20T12:13:50;15.45;;;3.85;;
23680;SDS011;62915;50.832;4.462;2023-12-20T12:16:17;15.18;;;3.55;;
23680;SDS011;62915;50.832;4.462;2023-12-20T12:18:44;15.32;;;3.67;;
23680;SDS011;62915;50.832;4.462;2023-12-20T12:21:10;19.27;;;3.47;;
23680;SDS011;62915;50.832;4.462;2023-12-20T12:23:43;19.70;;;4.28;;
23680;SDS011;62915;50.832;4.462;2023-12-20T12:26:09;12.00;;;3.40;;
23680;SDS011;62915;50.832;4.462;2023-12-20T12:28:34;15.63;;;3.80;;
23680;SDS011;62915;50.832;4.462;2023-12-20T12:31:00;11.07;;;3.33;;
23680;SDS011;62915;50.832;4.462;2023-12-20T12:33:26;15.25;;;4.00;;
23680;SDS011;62915;50.832;4.462;2023-12-20T12:35:52;20.95;;;3.97;;
23680;SDS011;62915;50.832;4.462;2023-12-20T12:38:22;16.98;;;4.00;;
23680;SDS011;62915;50.832;4.462;2023-12-20T12:40:49;17.30;;;3.75;;
23680;SDS011;62915;50.832;4.462;2023-12-20T12:43:15;15.88;;;4.10;;
23680;SDS011;62915;50.832;4.462;2023-12-20T12:45:41;17.42;;;3.83;;
23680;SDS011;62915;50.832;4.462;2023-12-20T12:48:07;14.20;;;3.47;;
23680;SDS011;62915;50.832;4.462;2023-12-20T12:50:32;15.55;;;3.30;;
23680;SDS011;62915;50.832;4.462;2023-12-20T12:52:58;16.50;;;3.55;;
23680;SDS011;62915;50.832;4.462;2023-12-20T12:55:24;11.93;;;3.65;;
23680;SDS011;62915;50.832;4.462;2023-12-20T12:57:49;13.95;;;3.53;;
23680;SDS011;62915;50.832;4.462;2023-12-20T13:00:15;17.60;;;3.97;;
23680;SDS011;62915;50.832;4.462;2023-12-20T13:02:41;19.42;;;3.92;;
23680;SDS011;62915;50.832;4.462;2023-12-20T13:05:07;15.57;;;3.95;;
23680;SDS011;62915;50.832;4.462;2023-12-20T13:07:33;17.00;;;4.00;;
23680;SDS011;62915;50.832;4.462;2023-12-20T13:09:59;15.20;;;4.15;;
23680;SDS011;62915;50.832;4.462;2023-12-20T13:12:25;13.25;;;3.55;;
23680;SDS011;62915;50.832;4.462;2023-12-20T13:14:51;18.75;;;4.00;;
23680;SDS011;62915;50.832;4.462;2023-12-20T13:17:17;10.73;;;3.38;;
23680;SDS011;62915;50.832;4.462;2023-12-20T13:19:42;19.88;;;3.90;;
23680;SDS011;62915;50.832;4.462;2023-12-20T13:22:08;20.13;;;3.85;;
23680;SDS011;62915;50.832;4.462;2023-12-20T13:24:34;14.80;;;3.63;;
23680;SDS011;62915;50.832;4.462;2023-12-20T13:27:00;11.13;;;3.58;;
23680;SDS011;62915;50.832;4.462;2023-12-20T13:29:25;16.10;;;3.80;;
23680;SDS011;62915;50.832;4.462;2023-12-20T13:31:54;20.65;;;4.45;;
23680;SDS011;62915;50.832;4.462;2023-12-20T13:34:20;20.70;;;4.28;;
23680;SDS011;62915;50.832;4.462;2023-12-20T13:36:46;14.20;;;3.10;;
23680;SDS011;62915;50.832;4.462;2023-12-20T13:39:13;17.20;;;3.97;;
23680;SDS011;62915;50.832;4.462;2023-12-20T13:41:39;19.67;;;3.78;;
23680;SDS011;62915;50.832;4.462;2023-12-20T13:44:05;17.55;;;3.88;;
23680;SDS011;62915;50.832;4.462;2023-12-20T13:46:31;14.75;;;3.67;;
23680;SDS011;62915;50.832;4.462;2023-12-20T13:48:57;12.23;;;3.38;;
23680;SDS011;62915;50.832;4.462;2023-12-20T13:51:22;17.92;;;3.58;;
23680;SDS011;62915;50.832;4.462;2023-12-20T13:53:48;14.88;;;3.50;;
23680;SDS011;62915;50.832;4.462;2023-12-20T13:56:14;19.23;;;4.45;;
23680;SDS011;62915;50.832;4.462;2023-12-20T13:58:41;23.25;;;5.57;;
23680;SDS011;62915;50.832;4.462;2023-12-20T14:01:07;22.50;;;4.35;;
23680;SDS011;62915;50.832;4.462;2023-12-20T14:03:35;17.13;;;3.90;;
23680;SDS011;62915;50.832;4.462;2023-12-20T14:06:00;12.35;;;4.15;;
23680;SDS011;62915;50.832;4.462;2023-12-20T14:08:27;14.80;;;4.03;;
23680;SDS011;62915;50.832;4.462;2023-12-20T14:10:55;17.40;;;4.47;;
23680;SDS011;62915;50.832;4.462;2023-12-20T14:13:21;18.02;;;4.10;;
23680;SDS011;62915;50.832;4.462;2023-12-20T14:15:47;19.33;;;7.38;;
23680;SDS011;62915;50.832;4.462;2023-12-20T14:18:14;15.75;;;4.13;;
23680;SDS011;62915;50.832;4.462;2023-12-20T14:20:40;11.40;;;3.13;;
23680;SDS011;62915;50.832;4.462;2023-12-20T14:23:07;15.50;;;4.32;;
23680;SDS011;62915;50.832;4.462;2023-12-20T14:25:37;16.00;;;3.53;;
23680;SDS011;62915;50.832;4.462;2023-12-20T14:28:05;12.27;;;3.45;;
23680;SDS011;62915;50.832;4.462;2023-12-20T14:30:31;12.00;;;3.83;;
23680;SDS011;62915;50.832;4.462;2023-12-20T14:32:57;17.25;;;3.67;;
23680;SDS011;62915;50.832;4.462;2023-12-20T14:35:23;14.98;;;3.88;;
23680;SDS011;62915;50.832;4.462;2023-12-20T14:37:49;14.90;;;3.55;;
23680;SDS011;62915;50.832;4.462;2023-12-20T14:40:15;15.73;;;3.38;;
23680;SDS011;62915;50.832;4.462;2023-12-20T14:42:45;14.45;;;3.80;;